sensor_id;sensor_type;location;lat;lon;timestamp;P1;durP1;ratioP1;P2;durP2;ratioP2
69260;SDS011;56378;52.404;20.816;2023-03-03T00:02:23;68.85;;;25.27;;
69260;SDS011;56378;52.404;20.816;2023-03-03T00:04:49;66.40;;;23.90;;
69260;SDS011;56378;52.404;20.816;2023-03-03T00:07:15;65.10;;;22.80;;
69260;SDS011;56378;52.404;20.816;2023-03-03T00:09:46;65.20;;;24.80;;
69260;SDS011;56378;52.404;20.816;2023-03-03T00:12:17;69.80;;;25.13;;
69260;SDS011;56378;52.404;20.816;2023-03-03T00:14:50;72.95;;;25.13;;
69260;SDS011;56378;52.404;20.816;2023-03-03T00:19:52;66.40;;;23.88;;
69260;SDS011;56378;52.404;20.816;2023-03-03T00:22:25;62.07;;;22.63;;
69260;SDS011;56378;52.404;20.816;2023-03-03T00:27:43;67.80;;;24.30;;
69260;SDS011;56378;52.404;20.816;2023-03-03T00:30:22;59.72;;;21.98;;
69260;SDS011;56378;52.404;20.816;2023-03-03T00:32:50;62.63;;;21.30;;
69260;SDS011;56378;52.404;20.816;2023-03-03T00:38:00;62.88;;;22.10;;
69260;SDS011;56378;52.404;20.816;2023-03-03T00:40:35;62.67;;;23.17;;
69260;SDS011;56378;52.404;20.816;2023-03-03T00:43:11;59.90;;;22.63;;
69260;SDS011;56378;52.404;20.816;2023-03-03T00:48:29;68.65;;;23.45;;
69260;SDS011;56378;52.404;20.816;2023-03-03T00:51:01;60.47;;;22.27;;
69260;SDS011;56378;52.404;20.816;2023-03-03T00:53:43;59.00;;;22.10;;
69260;SDS011;56378;52.404;20.816;2023-03-03T00:56:08;70.43;;;24.53;;
69260;SDS011;56378;52.404;20.816;2023-03-03T00:58:34;65.68;;;22.27;;
69260;SDS011;56378;52.404;20.816;2023-03-03T01:01:00;62.50;;;22.20;;
69260;SDS011;56378;52.404;20.816;2023-03-03T01:03:26;64.80;;;23.73;;
69260;SDS011;56378;52.404;20.816;2023-03-03T01:05:52;70.07;;;23.87;;
69260;SDS011;56378;52.404;20.816;2023-03-03T01:08:18;70.50;;;23.48;;
69260;SDS011;56378;52.404;20.816;2023-03-03T01:10:50;69.22;;;23.58;;
69260;SDS011;56378;52.404;20.816;2023-03-03T01:13:27;69.00;;;22.83;;
69260;SDS011;56378;52.404;20.816;2023-03-03T01:15:55;67.73;;;22.63;;
69260;SDS011;56378;52.404;20.816;2023-03-03T01:18:21;61.70;;;22.40;;
69260;SDS011;56378;52.404;20.816;2023-03-03T01:20:47;64.82;;;22.73;;
69260;SDS011;56378;52.404;20.816;2023-03-03T01:23:12;68.47;;;23.20;;
69260;SDS011;56378;52.404;20.816;2023-03-03T01:25:38;63.47;;;22.35;;
69260;SDS011;56378;52.404;20.816;2023-03-03T01:28:04;58.70;;;21.00;;
69260;SDS011;56378;52.404;20.816;2023-03-03T01:30:30;61.95;;;21.55;;
69260;SDS011;56378;52.404;20.816;2023-03-03T01:32:56;59.20;;;21.70;;
69260;SDS011;56378;52.404;20.816;2023-03-03T01:35:21;56.27;;;21.00;;
69260;SDS011;56378;52.404;20.816;2023-03-03T01:37:47;61.35;;;20.77;;
69260;SDS011;56378;52.404;20.816;2023-03-03T01:40:18;52.55;;;21.05;;
69260;SDS011;56378;52.404;20.816;2023-03-03T01:42:46;65.20;;;20.98;;
69260;SDS011;56378;52.404;20.816;2023-03-03T01:45:16;60.23;;;20.80;;
69260;SDS011;56378;52.404;20.816;2023-03-03T01:48:09;57.35;;;20.70;;
69260;SDS011;56378;52.404;20.816;2023-03-03T01:50:55;58.28;;;19.63;;
69260;SDS011;56378;52.404;20.816;2023-03-03T01:53:38;59.17;;;19.98;;
69260;SDS011;56378;52.404;20.816;2023-03-03T01:56:08;53.63;;;19.05;;
69260;SDS011;56378;52.404;20.816;2023-03-03T01:58:35;56.63;;;20.03;;
69260;SDS011;56378;52.404;20.816;2023-03-03T02:01:05;54.60;;;19.63;;
69260;SDS011;56378;52.404;20.816;2023-03-03T02:03:35;52.20;;;19.65;;
69260;SDS011;56378;52.404;20.816;2023-03-03T02:06:02;57.63;;;20.27;;
69260;SDS011;56378;52.404;20.816;2023-03-03T02:08:37;55.83;;;19.63;;
69260;SDS011;56378;52.404;20.816;2023-03-03T02:11:09;59.72;;;20.30;;
69260;SDS011;56378;52.404;20.816;2023-03-03T02:13:36;56.57;;;20.47;;
69260;SDS011;56378;52.404;20.816;2023-03-03T02:16:02;56.78;;;20.00;;
69260;SDS011;56378;52.404;20.816;2023-03-03T02:18:27;49.47;;;19.00;;
69260;SDS011;56378;52.404;20.816;2023-03-03T02:21:08;57.38;;;20.35;;
69260;SDS011;56378;52.404;20.816;2023-03-03T02:23:40;59.85;;;19.42;;
69260;SDS011;56378;52.404;20.816;2023-03-03T02:26:18;54.85;;;19.23;;
69260;SDS011;56378;52.404;20.816;2023-03-03T02:28:47;57.13;;;18.65;;
69260;SDS011;56378;52.404;20.816;2023-03-03T02:31:15;51.30;;;18.33;;
69260;SDS011;56378;52.404;20.816;2023-03-03T02:33:43;56.15;;;18.73;;
69260;SDS011;56378;52.404;20.816;2023-03-03T02:36:14;55.72;;;19.90;;
69260;SDS011;56378;52.404;20.816;2023-03-03T02:38:48;52.50;;;18.60;;
69260;SDS011;56378;52.404;20.816;2023-03-03T02:44:07;56.77;;;19.47;;
69260;SDS011;56378;52.404;20.816;2023-03-03T02:46:39;52.83;;;18.65;;
69260;SDS011;56378;52.404;20.816;2023-03-03T02:49:08;51.45;;;19.67;;
69260;SDS011;56378;52.404;20.816;2023-03-03T02:51:35;54.22;;;19.63;;
69260;SDS011;56378;52.404;20.816;2023-03-03T02:54:01;52.20;;;18.83;;
69260;SDS011;56378;52.404;20.816;2023-03-03T02:56:27;88.90;;;23.77;;
69260;SDS011;56378;52.404;20.816;2023-03-03T02:58:53;72.82;;;22.80;;
69260;SDS011;56378;52.404;20.816;2023-03-03T03:01:19;102.40;;;25.77;;
69260;SDS011;56378;52.404;20.816;2023-03-03T03:03:45;82.27;;;22.60;;
69260;SDS011;56378;52.404;20.816;2023-03-03T03:06:11;77.63;;;23.23;;
69260;SDS011;56378;52.404;20.816;2023-03-03T03:08:36;79.33;;;22.30;;
69260;SDS011;56378;52.404;20.816;2023-03-03T03:11:03;76.88;;;23.23;;
69260;SDS011;56378;52.404;20.816;2023-03-03T03:13:29;67.28;;;20.60;;
69260;SDS011;56378;52.404;20.816;2023-03-03T03:15:56;69.23;;;20.67;;
69260;SDS011;56378;52.404;20.816;2023-03-03T03:18:22;61.53;;;20.05;;
69260;SDS011;56378;52.404;20.816;2023-03-03T03:20:47;68.63;;;20.38;;
69260;SDS011;56378;52.404;20.816;2023-03-03T03:23:13;61.15;;;21.13;;
69260;SDS011;56378;52.404;20.816;2023-03-03T03:25:39;63.78;;;21.88;;
69260;SDS011;56378;52.404;20.816;2023-03-03T03:28:12;67.38;;;21.67;;
69260;SDS011;56378;52.404;20.816;2023-03-03T03:30:40;67.07;;;22.23;;
69260;SDS011;56378;52.404;20.816;2023-03-03T03:33:06;71.50;;;21.75;;
69260;SDS011;56378;52.404;20.816;2023-03-03T03:35:33;72.15;;;23.88;;
69260;SDS011;56378;52.404;20.816;2023-03-03T03:38:00;66.10;;;21.27;;
69260;SDS011;56378;52.404;20.816;2023-03-03T03:40:26;64.85;;;21.70;;
69260;SDS011;56378;52.404;20.816;2023-03-03T03:42:52;69.40;;;23.97;;
69260;SDS011;56378;52.404;20.816;2023-03-03T03:45:19;74.07;;;22.52;;
69260;SDS011;56378;52.404;20.816;2023-03-03T03:47:45;68.10;;;23.02;;
69260;SDS011;56378;52.404;20.816;2023-03-03T03:50:11;65.18;;;21.67;;
69260;SDS011;56378;52.404;20.816;2023-03-03T03:52:37;69.00;;;22.40;;
69260;SDS011;56378;52.404;20.816;2023-03-03T03:55:03;65.38;;;21.10;;
69260;SDS011;56378;52.404;20.816;2023-03-03T03:57:29;69.63;;;21.15;;
69260;SDS011;56378;52.404;20.816;2023-03-03T03:59:55;63.78;;;21.60;;
69260;SDS011;56378;52.404;20.816;2023-03-03T04:02:21;68.33;;;21.40;;
69260;SDS011;56378;52.404;20.816;2023-03-03T04:04:46;65.80;;;21.42;;
69260;SDS011;56378;52.404;20.816;2023-03-03T04:07:12;75.47;;;23.90;;
69260;SDS011;56378;52.404;20.816;2023-03-03T04:09:38;76.80;;;24.50;;
69260;SDS011;56378;52.404;20.816;2023-03-03T04:12:04;74.77;;;23.23;;
69260;SDS011;56378;52.404;20.816;2023-03-03T04:14:30;71.93;;;23.90;;
69260;SDS011;56378;52.404;20.816;2023-03-03T04:16:56;77.28;;;22.80;;
69260;SDS011;56378;52.404;20.816;2023-03-03T04:19:21;79.20;;;24.50;;
69260;SDS011;56378;52.404;20.816;2023-03-03T04:21:48;80.70;;;25.55;;
69260;SDS011;56378;52.404;20.816;2023-03-03T04:24:13;75.43;;;24.05;;
69260;SDS011;56378;52.404;20.816;2023-03-03T04:26:39;73.63;;;23.63;;
69260;SDS011;56378;52.404;20.816;2023-03-03T04:29:05;73.88;;;23.80;;
69260;SDS011;56378;52.404;20.816;2023-03-03T04:31:31;88.67;;;26.90;;
69260;SDS011;56378;52.404;20.816;2023-03-03T04:33:57;84.95;;;25.90;;
69260;SDS011;56378;52.404;20.816;2023-03-03T04:36:22;99.67;;;28.77;;
69260;SDS011;56378;52.404;20.816;2023-03-03T04:38:48;90.93;;;27.70;;
69260;SDS011;56378;52.404;20.816;2023-03-03T04:41:14;83.47;;;25.55;;
69260;SDS011;56378;52.404;20.816;2023-03-03T04:43:40;84.93;;;25.03;;
69260;SDS011;56378;52.404;20.816;2023-03-03T04:46:06;73.32;;;25.02;;
69260;SDS011;56378;52.404;20.816;2023-03-03T04:48:32;83.20;;;25.27;;
69260;SDS011;56378;52.404;20.816;2023-03-03T04:50:58;92.90;;;26.23;;
69260;SDS011;56378;52.404;20.816;2023-03-03T04:53:23;76.90;;;24.83;;
69260;SDS011;56378;52.404;20.816;2023-03-03T04:55:50;78.70;;;24.40;;
69260;SDS011;56378;52.404;20.816;2023-03-03T04:58:17;83.82;;;25.92;;
69260;SDS011;56378;52.404;20.816;2023-03-03T05:00:43;80.38;;;25.20;;
69260;SDS011;56378;52.404;20.816;2023-03-03T05:03:17;86.37;;;24.03;;
69260;SDS011;56378;52.404;20.816;2023-03-03T05:05:44;84.70;;;25.48;;
69260;SDS011;56378;52.404;20.816;2023-03-03T05:08:11;77.40;;;24.23;;
69260;SDS011;56378;52.404;20.816;2023-03-03T05:10:37;79.80;;;23.73;;
69260;SDS011;56378;52.404;20.816;2023-03-03T05:13:03;77.53;;;23.42;;
69260;SDS011;56378;52.404;20.816;2023-03-03T05:15:30;81.30;;;26.57;;
69260;SDS011;56378;52.404;20.816;2023-03-03T05:17:56;79.15;;;25.90;;
69260;SDS011;56378;52.404;20.816;2023-03-03T05:20:22;77.10;;;23.55;;
69260;SDS011;56378;52.404;20.816;2023-03-03T05:22:49;74.65;;;23.58;;
69260;SDS011;56378;52.404;20.816;2023-03-03T05:25:15;77.10;;;24.02;;
69260;SDS011;56378;52.404;20.816;2023-03-03T05:27:41;72.00;;;23.47;;
69260;SDS011;56378;52.404;20.816;2023-03-03T05:30:08;80.38;;;24.05;;
69260;SDS011;56378;52.404;20.816;2023-03-03T05:32:34;82.22;;;24.77;;
69260;SDS011;56378;52.404;20.816;2023-03-03T05:35:00;75.88;;;24.55;;
69260;SDS011;56378;52.404;20.816;2023-03-03T05:37:27;80.50;;;23.97;;
69260;SDS011;56378;52.404;20.816;2023-03-03T05:39:52;87.78;;;24.98;;
69260;SDS011;56378;52.404;20.816;2023-03-03T05:42:18;79.40;;;24.27;;
69260;SDS011;56378;52.404;20.816;2023-03-03T05:44:44;79.63;;;24.65;;
69260;SDS011;56378;52.404;20.816;2023-03-03T05:47:09;72.23;;;23.53;;
69260;SDS011;56378;52.404;20.816;2023-03-03T05:49:35;79.68;;;23.02;;
69260;SDS011;56378;52.404;20.816;2023-03-03T05:52:01;69.88;;;23.17;;
69260;SDS011;56378;52.404;20.816;2023-03-03T05:54:27;71.78;;;24.00;;
69260;SDS011;56378;52.404;20.816;2023-03-03T05:56:52;82.87;;;24.87;;
69260;SDS011;56378;52.404;20.816;2023-03-03T05:59:18;81.95;;;24.58;;
69260;SDS011;56378;52.404;20.816;2023-03-03T06:01:45;82.30;;;25.17;;
69260;SDS011;56378;52.404;20.816;2023-03-03T06:04:10;93.13;;;27.63;;
69260;SDS011;56378;52.404;20.816;2023-03-03T06:06:36;92.10;;;26.60;;
69260;SDS011;56378;52.404;20.816;2023-03-03T06:09:02;88.93;;;25.50;;
69260;SDS011;56378;52.404;20.816;2023-03-03T06:11:27;82.30;;;25.00;;
69260;SDS011;56378;52.404;20.816;2023-03-03T06:13:53;84.45;;;24.92;;
69260;SDS011;56378;52.404;20.816;2023-03-03T06:16:19;80.38;;;23.98;;
69260;SDS011;56378;52.404;20.816;2023-03-03T06:18:45;79.13;;;24.52;;
69260;SDS011;56378;52.404;20.816;2023-03-03T06:21:11;80.93;;;24.85;;
69260;SDS011;56378;52.404;20.816;2023-03-03T06:23:36;86.87;;;25.87;;
69260;SDS011;56378;52.404;20.816;2023-03-03T06:26:02;94.30;;;27.08;;
69260;SDS011;56378;52.404;20.816;2023-03-03T06:28:28;86.60;;;25.63;;
69260;SDS011;56378;52.404;20.816;2023-03-03T06:30:54;85.53;;;24.88;;
69260;SDS011;56378;52.404;20.816;2023-03-03T06:33:21;89.07;;;25.67;;
69260;SDS011;56378;52.404;20.816;2023-03-03T06:35:50;75.00;;;24.52;;
69260;SDS011;56378;52.404;20.816;2023-03-03T06:38:17;82.88;;;24.92;;
69260;SDS011;56378;52.404;20.816;2023-03-03T06:40:43;80.85;;;24.48;;
69260;SDS011;56378;52.404;20.816;2023-03-03T06:43:10;86.93;;;26.40;;
69260;SDS011;56378;52.404;20.816;2023-03-03T06:45:36;90.57;;;24.70;;
69260;SDS011;56378;52.404;20.816;2023-03-03T06:48:02;81.55;;;24.77;;
69260;SDS011;56378;52.404;20.816;2023-03-03T06:50:28;97.25;;;28.10;;
69260;SDS011;56378;52.404;20.816;2023-03-03T06:53:27;89.87;;;26.80;;
69260;SDS011;56378;52.404;20.816;2023-03-03T06:55:46;81.82;;;24.45;;
69260;SDS011;56378;52.404;20.816;2023-03-03T06:58:13;77.22;;;24.75;;
69260;SDS011;56378;52.404;20.816;2023-03-03T07:00:44;68.18;;;20.67;;
69260;SDS011;56378;52.404;20.816;2023-03-03T07:03:22;81.35;;;23.67;;
69260;SDS011;56378;52.404;20.816;2023-03-03T07:05:49;86.40;;;25.23;;
69260;SDS011;56378;52.404;20.816;2023-03-03T07:08:20;84.18;;;24.77;;
69260;SDS011;56378;52.404;20.816;2023-03-03T07:10:47;89.30;;;25.50;;
69260;SDS011;56378;52.404;20.816;2023-03-03T07:15:54;89.72;;;24.67;;
69260;SDS011;56378;52.404;20.816;2023-03-03T07:21:19;73.78;;;22.50;;
69260;SDS011;56378;52.404;20.816;2023-03-03T07:23:46;77.18;;;22.38;;
69260;SDS011;56378;52.404;20.816;2023-03-03T07:26:15;62.78;;;20.25;;
69260;SDS011;56378;52.404;20.816;2023-03-03T07:28:45;72.13;;;23.38;;
69260;SDS011;56378;52.404;20.816;2023-03-03T07:31:26;56.07;;;19.40;;
69260;SDS011;56378;52.404;20.816;2023-03-03T07:33:52;66.20;;;19.67;;
69260;SDS011;56378;52.404;20.816;2023-03-03T07:36:23;65.07;;;21.30;;
69260;SDS011;56378;52.404;20.816;2023-03-03T07:39:03;62.70;;;20.02;;
69260;SDS011;56378;52.404;20.816;2023-03-03T07:41:45;64.43;;;19.93;;
69260;SDS011;56378;52.404;20.816;2023-03-03T07:44:20;54.03;;;18.45;;
69260;SDS011;56378;52.404;20.816;2023-03-03T07:46:50;62.38;;;19.48;;
69260;SDS011;56378;52.404;20.816;2023-03-03T07:49:21;59.73;;;19.17;;
69260;SDS011;56378;52.404;20.816;2023-03-03T07:51:53;60.45;;;19.15;;
69260;SDS011;56378;52.404;20.816;2023-03-03T07:54:39;60.67;;;19.52;;
69260;SDS011;56378;52.404;20.816;2023-03-03T07:59:45;58.80;;;18.25;;
69260;SDS011;56378;52.404;20.816;2023-03-03T08:05:18;57.05;;;20.80;;
69260;SDS011;56378;52.404;20.816;2023-03-03T08:07:52;58.47;;;20.75;;
69260;SDS011;56378;52.404;20.816;2023-03-03T08:13:19;58.58;;;19.65;;
69260;SDS011;56378;52.404;20.816;2023-03-03T08:15:51;51.43;;;15.57;;
69260;SDS011;56378;52.404;20.816;2023-03-03T08:18:22;43.80;;;16.25;;
69260;SDS011;56378;52.404;20.816;2023-03-03T08:20:57;57.47;;;18.48;;
69260;SDS011;56378;52.404;20.816;2023-03-03T08:23:25;58.17;;;20.08;;
69260;SDS011;56378;52.404;20.816;2023-03-03T08:25:51;60.53;;;21.83;;
69260;SDS011;56378;52.404;20.816;2023-03-03T08:28:17;62.60;;;21.70;;
69260;SDS011;56378;52.404;20.816;2023-03-03T08:30:44;63.05;;;21.15;;
69260;SDS011;56378;52.404;20.816;2023-03-03T08:33:10;65.60;;;20.55;;
69260;SDS011;56378;52.404;20.816;2023-03-03T08:35:36;55.77;;;18.10;;
69260;SDS011;56378;52.404;20.816;2023-03-03T08:38:02;57.38;;;20.00;;
69260;SDS011;56378;52.404;20.816;2023-03-03T08:40:28;55.78;;;18.95;;
69260;SDS011;56378;52.404;20.816;2023-03-03T08:42:53;59.70;;;19.47;;
69260;SDS011;56378;52.404;20.816;2023-03-03T08:45:19;55.47;;;20.13;;
69260;SDS011;56378;52.404;20.816;2023-03-03T08:47:45;59.65;;;20.25;;
69260;SDS011;56378;52.404;20.816;2023-03-03T08:50:11;55.87;;;20.17;;
69260;SDS011;56378;52.404;20.816;2023-03-03T08:52:38;53.17;;;18.67;;
69260;SDS011;56378;52.404;20.816;2023-03-03T08:55:04;60.08;;;19.80;;
69260;SDS011;56378;52.404;20.816;2023-03-03T08:57:29;57.83;;;19.40;;
69260;SDS011;56378;52.404;20.816;2023-03-03T08:59:55;60.22;;;20.67;;
69260;SDS011;56378;52.404;20.816;2023-03-03T09:02:21;64.77;;;21.47;;
69260;SDS011;56378;52.404;20.816;2023-03-03T09:04:47;56.08;;;20.38;;
69260;SDS011;56378;52.404;20.816;2023-03-03T09:07:13;62.87;;;19.80;;
69260;SDS011;56378;52.404;20.816;2023-03-03T09:09:38;53.63;;;18.45;;
69260;SDS011;56378;52.404;20.816;2023-03-03T09:12:18;56.23;;;20.00;;
69260;SDS011;56378;52.404;20.816;2023-03-03T09:14:47;57.03;;;19.67;;
69260;SDS011;56378;52.404;20.816;2023-03-03T09:17:21;54.65;;;18.10;;
69260;SDS011;56378;52.404;20.816;2023-03-03T09:19:59;54.35;;;18.33;;
69260;SDS011;56378;52.404;20.816;2023-03-03T09:22:45;52.63;;;18.23;;
69260;SDS011;56378;52.404;20.816;2023-03-03T09:28:10;51.55;;;18.63;;
69260;SDS011;56378;52.404;20.816;2023-03-03T09:30:51;54.60;;;18.50;;
69260;SDS011;56378;52.404;20.816;2023-03-03T09:38:45;50.40;;;16.65;;
69260;SDS011;56378;52.404;20.816;2023-03-03T09:41:15;54.90;;;19.00;;
69260;SDS011;56378;52.404;20.816;2023-03-03T09:46:53;55.00;;;19.55;;
69260;SDS011;56378;52.404;20.816;2023-03-03T09:49:33;49.92;;;18.58;;
69260;SDS011;56378;52.404;20.816;2023-03-03T09:57:27;55.13;;;19.20;;
69260;SDS011;56378;52.404;20.816;2023-03-03T10:05:20;60.53;;;20.38;;
69260;SDS011;56378;52.404;20.816;2023-03-03T10:07:57;64.75;;;20.40;;
69260;SDS011;56378;52.404;20.816;2023-03-03T10:16:03;65.38;;;22.20;;
69260;SDS011;56378;52.404;20.816;2023-03-03T10:22:13;68.13;;;23.63;;
69260;SDS011;56378;52.404;20.816;2023-03-03T10:24:48;67.07;;;23.20;;
69260;SDS011;56378;52.404;20.816;2023-03-03T10:27:44;61.83;;;20.17;;
69260;SDS011;56378;52.404;20.816;2023-03-03T10:30:31;49.17;;;18.10;;
69260;SDS011;56378;52.404;20.816;2023-03-03T10:35:57;39.30;;;14.82;;
69260;SDS011;56378;52.404;20.816;2023-03-03T10:41:47;35.90;;;13.07;;
69260;SDS011;56378;52.404;20.816;2023-03-03T10:44:37;42.40;;;14.77;;
69260;SDS011;56378;52.404;20.816;2023-03-03T10:50:05;31.95;;;11.98;;
69260;SDS011;56378;52.404;20.816;2023-03-03T10:55:34;39.45;;;13.63;;
69260;SDS011;56378;52.404;20.816;2023-03-03T10:58:48;36.78;;;12.95;;
69260;SDS011;56378;52.404;20.816;2023-03-03T11:01:35;36.63;;;11.98;;
69260;SDS011;56378;52.404;20.816;2023-03-03T11:14:32;46.83;;;14.30;;
69260;SDS011;56378;52.404;20.816;2023-03-03T11:19:53;38.83;;;12.83;;
69260;SDS011;56378;52.404;20.816;2023-03-03T11:22:47;33.13;;;11.95;;
69260;SDS011;56378;52.404;20.816;2023-03-03T11:25:31;36.88;;;11.60;;
69260;SDS011;56378;52.404;20.816;2023-03-03T11:28:22;33.35;;;12.35;;
69260;SDS011;56378;52.404;20.816;2023-03-03T11:31:11;38.80;;;13.13;;
69260;SDS011;56378;52.404;20.816;2023-03-03T11:34:05;36.63;;;13.60;;
69260;SDS011;56378;52.404;20.816;2023-03-03T11:36:43;43.85;;;14.18;;
69260;SDS011;56378;52.404;20.816;2023-03-03T11:39:15;41.60;;;13.88;;
69260;SDS011;56378;52.404;20.816;2023-03-03T11:41:56;45.70;;;13.75;;
69260;SDS011;56378;52.404;20.816;2023-03-03T11:44:43;43.08;;;13.65;;
69260;SDS011;56378;52.404;20.816;2023-03-03T11:47:16;49.70;;;15.67;;
69260;SDS011;56378;52.404;20.816;2023-03-03T11:55:56;41.88;;;13.43;;
69260;SDS011;56378;52.404;20.816;2023-03-03T11:58:44;39.35;;;13.52;;
69260;SDS011;56378;52.404;20.816;2023-03-03T12:01:25;37.50;;;13.27;;
69260;SDS011;56378;52.404;20.816;2023-03-03T12:04:03;45.45;;;14.60;;
69260;SDS011;56378;52.404;20.816;2023-03-03T12:12:32;40.75;;;13.57;;
69260;SDS011;56378;52.404;20.816;2023-03-03T12:25:57;49.92;;;16.55;;
69260;SDS011;56378;52.404;20.816;2023-03-03T12:28:34;61.50;;;18.20;;
69260;SDS011;56378;52.404;20.816;2023-03-03T12:31:09;57.35;;;17.10;;
69260;SDS011;56378;52.404;20.816;2023-03-03T12:34:04;47.60;;;15.60;;
69260;SDS011;56378;52.404;20.816;2023-03-03T12:39:22;51.50;;;19.35;;
69260;SDS011;56378;52.404;20.816;2023-03-03T12:47:46;47.53;;;17.00;;
69260;SDS011;56378;52.404;20.816;2023-03-03T12:56:15;38.73;;;14.13;;
69260;SDS011;56378;52.404;20.816;2023-03-03T13:10:25;36.47;;;13.83;;
69260;SDS011;56378;52.404;20.816;2023-03-03T13:16:04;38.00;;;14.70;;
69260;SDS011;56378;52.404;20.816;2023-03-03T13:18:51;33.92;;;12.88;;
69260;SDS011;56378;52.404;20.816;2023-03-03T13:24:32;40.53;;;14.13;;
69260;SDS011;56378;52.404;20.816;2023-03-03T13:27:19;50.15;;;16.33;;
69260;SDS011;56378;52.404;20.816;2023-03-03T13:30:02;41.50;;;15.77;;
69260;SDS011;56378;52.404;20.816;2023-03-03T13:32:58;37.00;;;13.40;;
69260;SDS011;56378;52.404;20.816;2023-03-03T13:35:44;39.22;;;16.08;;
69260;SDS011;56378;52.404;20.816;2023-03-03T13:38:24;45.37;;;15.83;;
69260;SDS011;56378;52.404;20.816;2023-03-03T13:41:05;39.90;;;15.25;;
69260;SDS011;56378;52.404;20.816;2023-03-03T13:43:45;39.80;;;13.98;;
69260;SDS011;56378;52.404;20.816;2023-03-03T13:46:26;45.45;;;16.98;;
69260;SDS011;56378;52.404;20.816;2023-03-03T13:49:02;42.75;;;16.67;;
69260;SDS011;56378;52.404;20.816;2023-03-03T13:51:43;46.73;;;17.27;;
69260;SDS011;56378;52.404;20.816;2023-03-03T13:54:14;44.97;;;16.40;;
69260;SDS011;56378;52.404;20.816;2023-03-03T13:59:56;40.00;;;14.10;;
69260;SDS011;56378;52.404;20.816;2023-03-03T14:02:48;32.53;;;12.73;;
69260;SDS011;56378;52.404;20.816;2023-03-03T14:05:22;38.30;;;13.80;;
69260;SDS011;56378;52.404;20.816;2023-03-03T14:07:56;38.03;;;15.10;;
69260;SDS011;56378;52.404;20.816;2023-03-03T14:10:33;40.05;;;16.73;;
69260;SDS011;56378;52.404;20.816;2023-03-03T14:19:20;49.03;;;19.67;;
69260;SDS011;56378;52.404;20.816;2023-03-03T14:22:05;42.72;;;17.52;;
69260;SDS011;56378;52.404;20.816;2023-03-03T14:24:55;42.35;;;16.00;;
69260;SDS011;56378;52.404;20.816;2023-03-03T14:27:34;49.00;;;18.00;;
69260;SDS011;56378;52.404;20.816;2023-03-03T14:30:19;41.80;;;17.83;;
69260;SDS011;56378;52.404;20.816;2023-03-03T14:32:59;47.83;;;18.77;;
69260;SDS011;56378;52.404;20.816;2023-03-03T14:35:38;53.00;;;20.27;;
69260;SDS011;56378;52.404;20.816;2023-03-03T14:43:39;46.28;;;18.42;;
69260;SDS011;56378;52.404;20.816;2023-03-03T14:48:54;43.33;;;17.20;;
69260;SDS011;56378;52.404;20.816;2023-03-03T14:59:54;52.17;;;20.63;;
69260;SDS011;56378;52.404;20.816;2023-03-03T15:02:27;59.22;;;19.77;;
69260;SDS011;56378;52.404;20.816;2023-03-03T15:05:18;53.67;;;20.50;;
69260;SDS011;56378;52.404;20.816;2023-03-03T15:10:34;51.72;;;19.67;;
69260;SDS011;56378;52.404;20.816;2023-03-03T15:13:08;52.78;;;21.60;;
69260;SDS011;56378;52.404;20.816;2023-03-03T15:18:24;55.35;;;22.40;;
69260;SDS011;56378;52.404;20.816;2023-03-03T15:31:51;47.08;;;18.50;;
69260;SDS011;56378;52.404;20.816;2023-03-03T15:37:16;45.83;;;16.73;;
69260;SDS011;56378;52.404;20.816;2023-03-03T15:39:51;41.35;;;16.73;;
69260;SDS011;56378;52.404;20.816;2023-03-03T15:45:10;45.58;;;17.45;;
69260;SDS011;56378;52.404;20.816;2023-03-03T16:04:21;39.33;;;13.57;;
69260;SDS011;56378;52.404;20.816;2023-03-03T16:07:05;36.95;;;13.50;;
69260;SDS011;56378;52.404;20.816;2023-03-03T16:15:17;44.63;;;15.90;;
69260;SDS011;56378;52.404;20.816;2023-03-03T16:21:20;42.65;;;14.77;;
69260;SDS011;56378;52.404;20.816;2023-03-03T16:27:05;25.92;;;10.45;;
69260;SDS011;56378;52.404;20.816;2023-03-03T16:34:59;33.22;;;12.13;;
69260;SDS011;56378;52.404;20.816;2023-03-03T16:37:30;31.98;;;11.70;;
69260;SDS011;56378;52.404;20.816;2023-03-03T16:42:48;28.97;;;11.53;;
69260;SDS011;56378;52.404;20.816;2023-03-03T16:45:37;29.75;;;11.68;;
69260;SDS011;56378;52.404;20.816;2023-03-03T16:50:51;29.85;;;12.15;;
69260;SDS011;56378;52.404;20.816;2023-03-03T16:53:47;31.02;;;12.30;;
69260;SDS011;56378;52.404;20.816;2023-03-03T16:58:58;34.40;;;11.48;;
69260;SDS011;56378;52.404;20.816;2023-03-03T17:04:44;35.67;;;12.55;;
69260;SDS011;56378;52.404;20.816;2023-03-03T17:13:14;38.65;;;14.13;;
69260;SDS011;56378;52.404;20.816;2023-03-03T17:18:41;34.13;;;13.43;;
69260;SDS011;56378;52.404;20.816;2023-03-03T17:21:33;31.23;;;12.00;;
69260;SDS011;56378;52.404;20.816;2023-03-03T17:26:45;39.80;;;13.85;;
69260;SDS011;56378;52.404;20.816;2023-03-03T17:37:42;43.03;;;14.13;;
69260;SDS011;56378;52.404;20.816;2023-03-03T17:43:33;38.53;;;13.80;;
69260;SDS011;56378;52.404;20.816;2023-03-03T17:46:07;38.63;;;13.45;;
69260;SDS011;56378;52.404;20.816;2023-03-03T17:49:37;44.85;;;14.27;;
69260;SDS011;56378;52.404;20.816;2023-03-03T17:57:40;39.72;;;13.93;;
69260;SDS011;56378;52.404;20.816;2023-03-03T18:12:02;37.88;;;14.20;;
69260;SDS011;56378;52.404;20.816;2023-03-03T18:17:50;33.22;;;12.05;;
69260;SDS011;56378;52.404;20.816;2023-03-03T18:22:44;37.15;;;11.98;;
69260;SDS011;56378;52.404;20.816;2023-03-03T18:25:12;35.17;;;13.00;;
69260;SDS011;56378;52.404;20.816;2023-03-03T18:27:42;36.72;;;12.68;;
69260;SDS011;56378;52.404;20.816;2023-03-03T18:30:29;37.15;;;13.48;;
69260;SDS011;56378;52.404;20.816;2023-03-03T18:33:15;38.77;;;13.67;;
69260;SDS011;56378;52.404;20.816;2023-03-03T18:36:06;37.88;;;13.32;;
69260;SDS011;56378;52.404;20.816;2023-03-03T18:38:37;37.20;;;13.50;;
69260;SDS011;56378;52.404;20.816;2023-03-03T18:41:09;40.83;;;13.52;;
69260;SDS011;56378;52.404;20.816;2023-03-03T18:46:09;42.73;;;13.60;;
69260;SDS011;56378;52.404;20.816;2023-03-03T18:51:32;43.88;;;15.43;;
69260;SDS011;56378;52.404;20.816;2023-03-03T18:54:17;42.70;;;15.25;;
69260;SDS011;56378;52.404;20.816;2023-03-03T19:04:37;40.30;;;13.60;;
69260;SDS011;56378;52.404;20.816;2023-03-03T19:09:43;41.83;;;14.00;;
69260;SDS011;56378;52.404;20.816;2023-03-03T19:12:14;36.57;;;12.03;;
69260;SDS011;56378;52.404;20.816;2023-03-03T19:14:47;36.45;;;12.50;;
69260;SDS011;56378;52.404;20.816;2023-03-03T19:22:59;36.60;;;12.38;;
69260;SDS011;56378;52.404;20.816;2023-03-03T19:25:30;39.60;;;13.20;;
69260;SDS011;56378;52.404;20.816;2023-03-03T19:30:46;35.53;;;12.63;;
69260;SDS011;56378;52.404;20.816;2023-03-03T19:33:37;35.00;;;12.98;;
69260;SDS011;56378;52.404;20.816;2023-03-03T19:36:20;31.90;;;12.55;;
69260;SDS011;56378;52.404;20.816;2023-03-03T19:42:27;37.08;;;13.30;;
69260;SDS011;56378;52.404;20.816;2023-03-03T20:04:31;32.85;;;11.90;;